sensor_id;sensor_type;location;lat;lon;timestamp;P1;durP1;ratioP1;P2;durP2;ratioP2
505;SDS011;551;48.524;9.056;2023-06-22T00:00:27;10.43;;;8.20;;
505;SDS011;551;48.524;9.056;2023-06-22T00:02:52;10.33;;;8.57;;
505;SDS011;551;48.524;9.056;2023-06-22T00:05:17;13.23;;;8.80;;
505;SDS011;551;48.524;9.056;2023-06-22T00:07:43;11.00;;;8.13;;
505;SDS011;551;48.524;9.056;2023-06-22T00:10:09;10.03;;;8.30;;
505;SDS011;551;48.524;9.056;2023-06-22T00:12:34;9.87;;;7.63;;
505;SDS011;551;48.524;9.056;2023-06-22T00:15:00;14.13;;;8.60;;
505;SDS011;551;48.524;9.056;2023-06-22T00:17:25;11.30;;;8.00;;
505;SDS011;551;48.524;9.056;2023-06-22T00:19:51;11.17;;;8.07;;
505;SDS011;551;48.524;9.056;2023-06-22T00:22:18;12.43;;;7.10;;
505;SDS011;551;48.524;9.056;2023-06-22T00:24:52;9.67;;;7.97;;
505;SDS011;551;48.524;9.056;2023-06-22T00:27:19;12.57;;;8.43;;
505;SDS011;551;48.524;9.056;2023-06-22T00:29:44;9.77;;;8.27;;
505;SDS011;551;48.524;9.056;2023-06-22T00:32:10;10.27;;;7.57;;
505;SDS011;551;48.524;9.056;2023-06-22T00:34:35;13.03;;;9.90;;
505;SDS011;551;48.524;9.056;2023-06-22T00:37:01;13.20;;;8.90;;
505;SDS011;551;48.524;9.056;2023-06-22T00:39:27;10.03;;;8.50;;
505;SDS011;551;48.524;9.056;2023-06-22T00:41:52;12.17;;;9.47;;
505;SDS011;551;48.524;9.056;2023-06-22T00:44:18;9.30;;;8.07;;
505;SDS011;551;48.524;9.056;2023-06-22T00:46:43;10.87;;;8.30;;
505;SDS011;551;48.524;9.056;2023-06-22T00:49:09;10.17;;;8.47;;
505;SDS011;551;48.524;9.056;2023-06-22T00:51:35;8.60;;;7.53;;
505;SDS011;551;48.524;9.056;2023-06-22T00:54:03;13.77;;;8.30;;
505;SDS011;551;48.524;9.056;2023-06-22T00:56:30;14.43;;;8.73;;
505;SDS011;551;48.524;9.056;2023-06-22T00:58:57;12.50;;;8.93;;
505;SDS011;551;48.524;9.056;2023-06-22T01:01:24;12.47;;;9.40;;
505;SDS011;551;48.524;9.056;2023-06-22T01:03:50;9.70;;;8.70;;
505;SDS011;551;48.524;9.056;2023-06-22T01:06:18;10.47;;;8.43;;
505;SDS011;551;48.524;9.056;2023-06-22T01:08:53;9.00;;;8.17;;
505;SDS011;551;48.524;9.056;2023-06-22T01:11:28;12.30;;;8.87;;
505;SDS011;551;48.524;9.056;2023-06-22T01:13:57;10.60;;;9.33;;
505;SDS011;551;48.524;9.056;2023-06-22T01:16:30;11.30;;;9.47;;
505;SDS011;551;48.524;9.056;2023-06-22T01:18:57;11.67;;;9.10;;
505;SDS011;551;48.524;9.056;2023-06-22T01:21:30;9.03;;;8.10;;
505;SDS011;551;48.524;9.056;2023-06-22T01:26:31;12.10;;;9.10;;
505;SDS011;551;48.524;9.056;2023-06-22T01:29:03;15.93;;;9.20;;
505;SDS011;551;48.524;9.056;2023-06-22T01:31:30;11.37;;;8.53;;
505;SDS011;551;48.524;9.056;2023-06-22T01:33:59;11.07;;;9.37;;
505;SDS011;551;48.524;9.056;2023-06-22T01:36:27;13.50;;;10.10;;
505;SDS011;551;48.524;9.056;2023-06-22T01:38:54;12.53;;;8.67;;
505;SDS011;551;48.524;9.056;2023-06-22T01:41:21;11.03;;;9.87;;
505;SDS011;551;48.524;9.056;2023-06-22T01:43:49;11.47;;;8.70;;
505;SDS011;551;48.524;9.056;2023-06-22T01:46:16;15.13;;;10.07;;
505;SDS011;551;48.524;9.056;2023-06-22T01:48:44;13.87;;;9.27;;
505;SDS011;551;48.524;9.056;2023-06-22T01:51:11;10.73;;;8.57;;
505;SDS011;551;48.524;9.056;2023-06-22T01:53:37;12.40;;;9.87;;
505;SDS011;551;48.524;9.056;2023-06-22T01:56:02;10.87;;;9.30;;
505;SDS011;551;48.524;9.056;2023-06-22T01:58:29;13.37;;;9.80;;
505;SDS011;551;48.524;9.056;2023-06-22T02:00:58;12.30;;;8.83;;
505;SDS011;551;48.524;9.056;2023-06-22T02:04:00;13.57;;;10.00;;
505;SDS011;551;48.524;9.056;2023-06-22T02:06:31;16.93;;;9.60;;
505;SDS011;551;48.524;9.056;2023-06-22T02:09:02;13.30;;;9.90;;
505;SDS011;551;48.524;9.056;2023-06-22T02:11:33;15.07;;;8.80;;
505;SDS011;551;48.524;9.056;2023-06-22T02:14:01;12.30;;;9.40;;
505;SDS011;551;48.524;9.056;2023-06-22T02:16:27;11.77;;;9.40;;
505;SDS011;551;48.524;9.056;2023-06-22T02:18:56;12.40;;;9.47;;
505;SDS011;551;48.524;9.056;2023-06-22T02:21:28;12.93;;;9.20;;
505;SDS011;551;48.524;9.056;2023-06-22T02:23:54;11.10;;;8.70;;
505;SDS011;551;48.524;9.056;2023-06-22T02:26:20;12.97;;;9.70;;
505;SDS011;551;48.524;9.056;2023-06-22T02:28:45;14.87;;;9.13;;
505;SDS011;551;48.524;9.056;2023-06-22T02:31:11;13.27;;;9.07;;
505;SDS011;551;48.524;9.056;2023-06-22T02:33:37;10.80;;;8.83;;
505;SDS011;551;48.524;9.056;2023-06-22T02:36:02;13.80;;;9.83;;
505;SDS011;551;48.524;9.056;2023-06-22T02:38:30;10.40;;;9.30;;
505;SDS011;551;48.524;9.056;2023-06-22T02:40:59;15.13;;;10.53;;
505;SDS011;551;48.524;9.056;2023-06-22T02:43:25;16.97;;;9.90;;
505;SDS011;551;48.524;9.056;2023-06-22T02:45:50;16.47;;;10.30;;
505;SDS011;551;48.524;9.056;2023-06-22T02:48:16;13.93;;;10.80;;
505;SDS011;551;48.524;9.056;2023-06-22T02:50:41;16.33;;;10.30;;
505;SDS011;551;48.524;9.056;2023-06-22T02:53:07;16.70;;;10.13;;
505;SDS011;551;48.524;9.056;2023-06-22T02:55:32;10.73;;;9.60;;
505;SDS011;551;48.524;9.056;2023-06-22T02:57:58;12.00;;;9.57;;
505;SDS011;551;48.524;9.056;2023-06-22T03:00:24;12.07;;;10.40;;
505;SDS011;551;48.524;9.056;2023-06-22T03:02:55;12.10;;;9.13;;
505;SDS011;551;48.524;9.056;2023-06-22T03:05:21;11.67;;;9.77;;
505;SDS011;551;48.524;9.056;2023-06-22T03:07:46;11.13;;;9.30;;
505;SDS011;551;48.524;9.056;2023-06-22T03:10:13;12.70;;;9.50;;
505;SDS011;551;48.524;9.056;2023-06-22T03:12:40;14.60;;;9.67;;
505;SDS011;551;48.524;9.056;2023-06-22T03:15:07;12.20;;;9.57;;
505;SDS011;551;48.524;9.056;2023-06-22T03:17:34;13.20;;;10.57;;
505;SDS011;551;48.524;9.056;2023-06-22T03:20:00;13.13;;;9.23;;
505;SDS011;551;48.524;9.056;2023-06-22T03:22:32;11.20;;;9.67;;
505;SDS011;551;48.524;9.056;2023-06-22T03:24:57;11.37;;;9.30;;
505;SDS011;551;48.524;9.056;2023-06-22T03:27:23;11.63;;;9.93;;
505;SDS011;551;48.524;9.056;2023-06-22T03:29:48;17.13;;;9.83;;
505;SDS011;551;48.524;9.056;2023-06-22T03:32:14;12.17;;;9.53;;
505;SDS011;551;48.524;9.056;2023-06-22T03:34:39;11.03;;;9.93;;
505;SDS011;551;48.524;9.056;2023-06-22T03:37:05;12.60;;;9.63;;
505;SDS011;551;48.524;9.056;2023-06-22T03:39:31;14.20;;;9.80;;
505;SDS011;551;48.524;9.056;2023-06-22T03:41:56;10.40;;;9.40;;
505;SDS011;551;48.524;9.056;2023-06-22T03:44:22;14.23;;;10.70;;
505;SDS011;551;48.524;9.056;2023-06-22T03:46:47;13.33;;;10.20;;
505;SDS011;551;48.524;9.056;2023-06-22T03:49:13;12.73;;;9.60;;
505;SDS011;551;48.524;9.056;2023-06-22T03:51:38;12.03;;;9.50;;
505;SDS011;551;48.524;9.056;2023-06-22T03:54:04;11.63;;;9.30;;
505;SDS011;551;48.524;9.056;2023-06-22T03:56:29;18.67;;;10.23;;
505;SDS011;551;48.524;9.056;2023-06-22T03:58:56;12.43;;;10.20;;
505;SDS011;551;48.524;9.056;2023-06-22T04:01:21;17.80;;;9.90;;
505;SDS011;551;48.524;9.056;2023-06-22T04:03:47;15.30;;;11.30;;
505;SDS011;551;48.524;9.056;2023-06-22T04:06:14;17.87;;;11.03;;
505;SDS011;551;48.524;9.056;2023-06-22T04:08:40;27.50;;;10.73;;
505;SDS011;551;48.524;9.056;2023-06-22T04:11:06;17.57;;;11.33;;
505;SDS011;551;48.524;9.056;2023-06-22T04:13:31;18.57;;;10.87;;
505;SDS011;551;48.524;9.056;2023-06-22T04:15:57;24.07;;;10.33;;
505;SDS011;551;48.524;9.056;2023-06-22T04:18:22;16.63;;;11.13;;
505;SDS011;551;48.524;9.056;2023-06-22T04:20:48;17.37;;;11.17;;
505;SDS011;551;48.524;9.056;2023-06-22T04:23:13;20.87;;;11.63;;
505;SDS011;551;48.524;9.056;2023-06-22T04:25:39;20.30;;;11.90;;
505;SDS011;551;48.524;9.056;2023-06-22T04:28:04;19.73;;;11.10;;
505;SDS011;551;48.524;9.056;2023-06-22T04:30:32;13.73;;;10.33;;
505;SDS011;551;48.524;9.056;2023-06-22T04:32:58;18.33;;;10.80;;
505;SDS011;551;48.524;9.056;2023-06-22T04:35:24;20.90;;;10.23;;
505;SDS011;551;48.524;9.056;2023-06-22T04:37:50;13.77;;;10.57;;
505;SDS011;551;48.524;9.056;2023-06-22T04:40:19;15.60;;;11.63;;
505;SDS011;551;48.524;9.056;2023-06-22T04:42:48;16.03;;;11.37;;
505;SDS011;551;48.524;9.056;2023-06-22T04:45:18;16.33;;;11.40;;
505;SDS011;551;48.524;9.056;2023-06-22T04:47:44;17.60;;;11.70;;
505;SDS011;551;48.524;9.056;2023-06-22T04:50:10;15.83;;;10.70;;
505;SDS011;551;48.524;9.056;2023-06-22T04:52:39;13.43;;;11.13;;
505;SDS011;551;48.524;9.056;2023-06-22T04:55:05;16.33;;;10.57;;
505;SDS011;551;48.524;9.056;2023-06-22T04:57:31;15.03;;;10.73;;
505;SDS011;551;48.524;9.056;2023-06-22T05:00:00;15.13;;;10.73;;
505;SDS011;551;48.524;9.056;2023-06-22T05:02:41;16.50;;;10.70;;
505;SDS011;551;48.524;9.056;2023-06-22T05:05:06;11.23;;;9.43;;
505;SDS011;551;48.524;9.056;2023-06-22T05:07:33;11.20;;;10.00;;
505;SDS011;551;48.524;9.056;2023-06-22T05:09:59;11.33;;;10.23;;
505;SDS011;551;48.524;9.056;2023-06-22T05:12:27;13.37;;;9.70;;
505;SDS011;551;48.524;9.056;2023-06-22T05:14:53;16.03;;;10.80;;
505;SDS011;551;48.524;9.056;2023-06-22T05:17:19;11.40;;;9.63;;
505;SDS011;551;48.524;9.056;2023-06-22T05:19:44;18.83;;;9.50;;
505;SDS011;551;48.524;9.056;2023-06-22T05:22:13;13.93;;;10.00;;
505;SDS011;551;48.524;9.056;2023-06-22T05:24:40;11.43;;;9.67;;
505;SDS011;551;48.524;9.056;2023-06-22T05:27:05;13.03;;;9.57;;
505;SDS011;551;48.524;9.056;2023-06-22T05:29:32;11.00;;;9.77;;
505;SDS011;551;48.524;9.056;2023-06-22T05:31:58;16.63;;;9.70;;
505;SDS011;551;48.524;9.056;2023-06-22T05:34:23;9.77;;;8.90;;
505;SDS011;551;48.524;9.056;2023-06-22T05:36:49;11.60;;;9.43;;
505;SDS011;551;48.524;9.056;2023-06-22T05:39:14;13.87;;;10.30;;
505;SDS011;551;48.524;9.056;2023-06-22T05:41:41;11.57;;;9.60;;
505;SDS011;551;48.524;9.056;2023-06-22T05:44:08;10.90;;;9.80;;
505;SDS011;551;48.524;9.056;2023-06-22T05:46:33;15.80;;;9.83;;
505;SDS011;551;48.524;9.056;2023-06-22T05:48:59;9.70;;;8.47;;
505;SDS011;551;48.524;9.056;2023-06-22T05:51:24;20.53;;;10.53;;
505;SDS011;551;48.524;9.056;2023-06-22T05:53:50;15.23;;;9.53;;
505;SDS011;551;48.524;9.056;2023-06-22T05:56:16;12.97;;;9.43;;
505;SDS011;551;48.524;9.056;2023-06-22T05:58:42;12.77;;;10.10;;
505;SDS011;551;48.524;9.056;2023-06-22T06:01:07;11.10;;;10.00;;
505;SDS011;551;48.524;9.056;2023-06-22T06:03:33;10.23;;;9.30;;
505;SDS011;551;48.524;9.056;2023-06-22T06:05:58;15.20;;;9.87;;
505;SDS011;551;48.524;9.056;2023-06-22T06:08:24;12.27;;;8.80;;
505;SDS011;551;48.524;9.056;2023-06-22T06:10:50;14.23;;;10.20;;
505;SDS011;551;48.524;9.056;2023-06-22T06:13:17;14.93;;;9.57;;
505;SDS011;551;48.524;9.056;2023-06-22T06:15:43;11.23;;;9.70;;
505;SDS011;551;48.524;9.056;2023-06-22T06:18:09;9.77;;;8.60;;
505;SDS011;551;48.524;9.056;2023-06-22T06:20:37;12.37;;;9.07;;
505;SDS011;551;48.524;9.056;2023-06-22T06:23:03;9.60;;;8.60;;
505;SDS011;551;48.524;9.056;2023-06-22T06:25:29;10.43;;;8.27;;
505;SDS011;551;48.524;9.056;2023-06-22T06:27:54;9.23;;;8.33;;
505;SDS011;551;48.524;9.056;2023-06-22T06:30:20;13.07;;;8.60;;
505;SDS011;551;48.524;9.056;2023-06-22T06:32:47;9.67;;;7.80;;
505;SDS011;551;48.524;9.056;2023-06-22T06:35:13;11.43;;;8.43;;
505;SDS011;551;48.524;9.056;2023-06-22T06:37:40;9.73;;;8.70;;
505;SDS011;551;48.524;9.056;2023-06-22T06:40:09;9.70;;;8.70;;
505;SDS011;551;48.524;9.056;2023-06-22T06:42:36;9.63;;;8.63;;
505;SDS011;551;48.524;9.056;2023-06-22T06:45:10;9.33;;;8.30;;
505;SDS011;551;48.524;9.056;2023-06-22T06:47:37;8.70;;;7.90;;
505;SDS011;551;48.524;9.056;2023-06-22T06:50:03;9.17;;;7.50;;
505;SDS011;551;48.524;9.056;2023-06-22T06:52:30;8.93;;;6.17;;
505;SDS011;551;48.524;9.056;2023-06-22T06:54:55;10.97;;;7.70;;
505;SDS011;551;48.524;9.056;2023-06-22T06:57:21;7.50;;;6.90;;
505;SDS011;551;48.524;9.056;2023-06-22T06:59:50;9.20;;;7.60;;
505;SDS011;551;48.524;9.056;2023-06-22T07:02:15;6.77;;;6.10;;
505;SDS011;551;48.524;9.056;2023-06-22T07:04:41;12.50;;;7.40;;
505;SDS011;551;48.524;9.056;2023-06-22T07:07:06;7.87;;;6.93;;
505;SDS011;551;48.524;9.056;2023-06-22T07:09:32;9.47;;;6.87;;
505;SDS011;551;48.524;9.056;2023-06-22T07:11:57;8.40;;;6.03;;
505;SDS011;551;48.524;9.056;2023-06-22T07:14:23;12.03;;;6.13;;
505;SDS011;551;48.524;9.056;2023-06-22T07:16:49;7.50;;;6.00;;
505;SDS011;551;48.524;9.056;2023-06-22T07:19:14;8.30;;;6.40;;
505;SDS011;551;48.524;9.056;2023-06-22T07:21:40;11.20;;;7.30;;
505;SDS011;551;48.524;9.056;2023-06-22T07:24:06;8.60;;;7.03;;
505;SDS011;551;48.524;9.056;2023-06-22T07:26:32;8.93;;;6.60;;
505;SDS011;551;48.524;9.056;2023-06-22T07:28:58;9.33;;;7.17;;
505;SDS011;551;48.524;9.056;2023-06-22T07:31:26;9.97;;;7.20;;
505;SDS011;551;48.524;9.056;2023-06-22T07:33:52;9.17;;;6.73;;
505;SDS011;551;48.524;9.056;2023-06-22T07:36:18;8.80;;;5.90;;
505;SDS011;551;48.524;9.056;2023-06-22T07:38:44;12.00;;;7.67;;
505;SDS011;551;48.524;9.056;2023-06-22T07:41:09;10.60;;;7.40;;
505;SDS011;551;48.524;9.056;2023-06-22T07:43:35;9.20;;;7.60;;
505;SDS011;551;48.524;9.056;2023-06-22T07:46:05;9.93;;;7.70;;
505;SDS011;551;48.524;9.056;2023-06-22T07:48:30;8.50;;;7.20;;
505;SDS011;551;48.524;9.056;2023-06-22T07:50:56;8.50;;;7.67;;
505;SDS011;551;48.524;9.056;2023-06-22T07:53:22;8.53;;;7.60;;
505;SDS011;551;48.524;9.056;2023-06-22T07:55:48;7.60;;;7.00;;
505;SDS011;551;48.524;9.056;2023-06-22T07:58:14;9.40;;;8.63;;
505;SDS011;551;48.524;9.056;2023-06-22T08:00:40;8.83;;;7.93;;
505;SDS011;551;48.524;9.056;2023-06-22T08:03:06;8.10;;;7.33;;
505;SDS011;551;48.524;9.056;2023-06-22T08:05:32;8.80;;;8.00;;
505;SDS011;551;48.524;9.056;2023-06-22T08:07:57;10.23;;;7.30;;
505;SDS011;551;48.524;9.056;2023-06-22T08:10:23;10.90;;;7.83;;
505;SDS011;551;48.524;9.056;2023-06-22T08:12:48;10.40;;;7.77;;
505;SDS011;551;48.524;9.056;2023-06-22T08:15:14;8.03;;;7.27;;
505;SDS011;551;48.524;9.056;2023-06-22T08:17:40;10.47;;;6.77;;
505;SDS011;551;48.524;9.056;2023-06-22T08:20:08;10.43;;;8.00;;
505;SDS011;551;48.524;9.056;2023-06-22T08:22:35;16.63;;;8.07;;
505;SDS011;551;48.524;9.056;2023-06-22T08:25:02;11.57;;;7.13;;
505;SDS011;551;48.524;9.056;2023-06-22T08:27:29;12.47;;;6.90;;
505;SDS011;551;48.524;9.056;2023-06-22T08:29:56;8.50;;;7.57;;
505;SDS011;551;48.524;9.056;2023-06-22T08:32:23;15.57;;;7.47;;
505;SDS011;551;48.524;9.056;2023-06-22T08:34:51;9.97;;;7.70;;
505;SDS011;551;48.524;9.056;2023-06-22T08:37:17;16.63;;;7.57;;
505;SDS011;551;48.524;9.056;2023-06-22T08:39:43;8.80;;;6.47;;
505;SDS011;551;48.524;9.056;2023-06-22T08:42:08;10.17;;;6.17;;
505;SDS011;551;48.524;9.056;2023-06-22T08:44:34;11.40;;;7.20;;
505;SDS011;551;48.524;9.056;2023-06-22T08:46:59;10.77;;;7.20;;
505;SDS011;551;48.524;9.056;2023-06-22T08:49:25;11.27;;;7.00;;
505;SDS011;551;48.524;9.056;2023-06-22T08:51:50;13.10;;;8.27;;
505;SDS011;551;48.524;9.056;2023-06-22T08:54:18;15.90;;;7.90;;
505;SDS011;551;48.524;9.056;2023-06-22T08:56:43;9.60;;;6.97;;
505;SDS011;551;48.524;9.056;2023-06-22T08:59:09;13.07;;;7.40;;
505;SDS011;551;48.524;9.056;2023-06-22T09:01:34;11.17;;;8.03;;
505;SDS011;551;48.524;9.056;2023-06-22T09:04:00;10.93;;;6.90;;
505;SDS011;551;48.524;9.056;2023-06-22T09:06:25;13.97;;;6.77;;
505;SDS011;551;48.524;9.056;2023-06-22T09:08:51;10.57;;;7.93;;
505;SDS011;551;48.524;9.056;2023-06-22T09:11:16;13.63;;;7.50;;
505;SDS011;551;48.524;9.056;2023-06-22T09:13:42;10.43;;;7.70;;
505;SDS011;551;48.524;9.056;2023-06-22T09:16:08;15.17;;;7.70;;
505;SDS011;551;48.524;9.056;2023-06-22T09:18:34;11.50;;;8.10;;
505;SDS011;551;48.524;9.056;2023-06-22T09:20:59;13.47;;;6.70;;
505;SDS011;551;48.524;9.056;2023-06-22T09:23:25;12.87;;;7.43;;
505;SDS011;551;48.524;9.056;2023-06-22T09:25:51;9.37;;;8.00;;
505;SDS011;551;48.524;9.056;2023-06-22T09:28:16;8.00;;;6.90;;
505;SDS011;551;48.524;9.056;2023-06-22T09:30:45;12.30;;;7.10;;
505;SDS011;551;48.524;9.056;2023-06-22T09:33:11;12.50;;;8.70;;
505;SDS011;551;48.524;9.056;2023-06-22T09:35:36;18.53;;;8.43;;
505;SDS011;551;48.524;9.056;2023-06-22T09:38:02;10.47;;;8.10;;
505;SDS011;551;48.524;9.056;2023-06-22T09:40:27;19.73;;;7.93;;
505;SDS011;551;48.524;9.056;2023-06-22T09:42:53;11.57;;;8.30;;
505;SDS011;551;48.524;9.056;2023-06-22T09:45:20;16.13;;;7.17;;
505;SDS011;551;48.524;9.056;2023-06-22T09:47:45;8.90;;;7.13;;
505;SDS011;551;48.524;9.056;2023-06-22T09:50:11;8.70;;;7.43;;
505;SDS011;551;48.524;9.056;2023-06-22T09:52:37;8.70;;;6.67;;
505;SDS011;551;48.524;9.056;2023-06-22T09:55:03;11.87;;;7.93;;
505;SDS011;551;48.524;9.056;2023-06-22T09:57:29;8.07;;;6.87;;
505;SDS011;551;48.524;9.056;2023-06-22T09:59:55;8.27;;;6.83;;
505;SDS011;551;48.524;9.056;2023-06-22T10:02:20;8.37;;;7.57;;
505;SDS011;551;48.524;9.056;2023-06-22T10:04:47;8.60;;;7.23;;
505;SDS011;551;48.524;9.056;2023-06-22T10:07:12;8.57;;;7.03;;
505;SDS011;551;48.524;9.056;2023-06-22T10:09:38;8.50;;;7.67;;
505;SDS011;551;48.524;9.056;2023-06-22T10:12:03;8.53;;;7.07;;
505;SDS011;551;48.524;9.056;2023-06-22T10:14:29;9.63;;;8.30;;
505;SDS011;551;48.524;9.056;2023-06-22T10:16:55;9.17;;;7.57;;
505;SDS011;551;48.524;9.056;2023-06-22T10:19:20;7.90;;;6.97;;
505;SDS011;551;48.524;9.056;2023-06-22T10:21:46;10.60;;;7.00;;
505;SDS011;551;48.524;9.056;2023-06-22T10:24:11;10.33;;;7.30;;
505;SDS011;551;48.524;9.056;2023-06-22T10:26:37;10.73;;;7.50;;
505;SDS011;551;48.524;9.056;2023-06-22T10:29:03;11.27;;;8.00;;
505;SDS011;551;48.524;9.056;2023-06-22T10:31:28;10.43;;;7.00;;
505;SDS011;551;48.524;9.056;2023-06-22T10:33:54;9.07;;;6.80;;
505;SDS011;551;48.524;9.056;2023-06-22T10:36:20;9.43;;;7.10;;
505;SDS011;551;48.524;9.056;2023-06-22T10:38:46;11.53;;;7.83;;
505;SDS011;551;48.524;9.056;2023-06-22T10:41:12;14.10;;;7.83;;
505;SDS011;551;48.524;9.056;2023-06-22T10:43:38;15.50;;;8.70;;
505;SDS011;551;48.524;9.056;2023-06-22T10:46:04;15.03;;;7.73;;
505;SDS011;551;48.524;9.056;2023-06-22T10:48:30;9.20;;;6.53;;
505;SDS011;551;48.524;9.056;2023-06-22T10:50:55;12.00;;;7.57;;
505;SDS011;551;48.524;9.056;2023-06-22T10:53:21;11.07;;;6.77;;
505;SDS011;551;48.524;9.056;2023-06-22T10:55:46;11.57;;;7.57;;
505;SDS011;551;48.524;9.056;2023-06-22T10:58:12;11.27;;;8.30;;
505;SDS011;551;48.524;9.056;2023-06-22T11:00:38;8.37;;;7.13;;
505;SDS011;551;48.524;9.056;2023-06-22T11:03:03;11.70;;;6.90;;
505;SDS011;551;48.524;9.056;2023-06-22T11:05:29;11.00;;;7.67;;
505;SDS011;551;48.524;9.056;2023-06-22T11:07:54;11.00;;;8.10;;
505;SDS011;551;48.524;9.056;2023-06-22T11:10:20;10.70;;;8.70;;
505;SDS011;551;48.524;9.056;2023-06-22T11:12:45;9.83;;;8.47;;
505;SDS011;551;48.524;9.056;2023-06-22T11:15:11;12.63;;;7.60;;
505;SDS011;551;48.524;9.056;2023-06-22T11:17:36;10.07;;;7.00;;
505;SDS011;551;48.524;9.056;2023-06-22T11:20:02;9.93;;;7.53;;
505;SDS011;551;48.524;9.056;2023-06-22T11:22:34;9.10;;;7.40;;
505;SDS011;551;48.524;9.056;2023-06-22T11:25:00;8.30;;;7.13;;
505;SDS011;551;48.524;9.056;2023-06-22T11:27:26;11.90;;;7.50;;
505;SDS011;551;48.524;9.056;2023-06-22T11:29:51;9.87;;;7.27;;
505;SDS011;551;48.524;9.056;2023-06-22T11:32:18;13.67;;;7.80;;
505;SDS011;551;48.524;9.056;2023-06-22T11:34:43;11.57;;;8.17;;
505;SDS011;551;48.524;9.056;2023-06-22T11:37:09;11.17;;;7.23;;
505;SDS011;551;48.524;9.056;2023-06-22T11:39:34;13.30;;;7.67;;
505;SDS011;551;48.524;9.056;2023-06-22T11:42:00;12.90;;;7.00;;
505;SDS011;551;48.524;9.056;2023-06-22T11:44:25;12.63;;;8.50;;
505;SDS011;551;48.524;9.056;2023-06-22T11:46:51;12.33;;;7.30;;
505;SDS011;551;48.524;9.056;2023-06-22T11:49:16;13.93;;;7.30;;
505;SDS011;551;48.524;9.056;2023-06-22T11:51:42;13.00;;;8.27;;
505;SDS011;551;48.524;9.056;2023-06-22T11:54:07;11.47;;;7.90;;
505;SDS011;551;48.524;9.056;2023-06-22T11:56:33;14.43;;;8.20;;
505;SDS011;551;48.524;9.056;2023-06-22T11:58:58;14.63;;;7.47;;
505;SDS011;551;48.524;9.056;2023-06-22T12:01:24;10.60;;;8.23;;
505;SDS011;551;48.524;9.056;2023-06-22T12:03:49;14.00;;;7.83;;
505;SDS011;551;48.524;9.056;2023-06-22T12:06:16;13.37;;;8.60;;
505;SDS011;551;48.524;9.056;2023-06-22T12:08:41;9.40;;;7.60;;
505;SDS011;551;48.524;9.056;2023-06-22T12:11:07;10.27;;;8.90;;
505;SDS011;551;48.524;9.056;2023-06-22T12:13:32;13.53;;;8.93;;
505;SDS011;551;48.524;9.056;2023-06-22T12:15:58;14.10;;;7.67;;
505;SDS011;551;48.524;9.056;2023-06-22T12:18:23;14.43;;;8.47;;
505;SDS011;551;48.524;9.056;2023-06-22T12:20:49;13.87;;;8.10;;
505;SDS011;551;48.524;9.056;2023-06-22T12:23:14;11.87;;;7.97;;
505;SDS011;551;48.524;9.056;2023-06-22T12:25:40;12.90;;;8.03;;
505;SDS011;551;48.524;9.056;2023-06-22T12:28:06;13.57;;;8.90;;
505;SDS011;551;48.524;9.056;2023-06-22T12:30:32;10.90;;;7.63;;
505;SDS011;551;48.524;9.056;2023-06-22T12:32:58;12.40;;;8.00;;
505;SDS011;551;48.524;9.056;2023-06-22T12:35:24;9.17;;;7.40;;
505;SDS011;551;48.524;9.056;2023-06-22T12:37:49;10.90;;;7.80;;
505;SDS011;551;48.524;9.056;2023-06-22T12:40:15;12.20;;;7.20;;
505;SDS011;551;48.524;9.056;2023-06-22T12:42:40;13.80;;;8.30;;
505;SDS011;551;48.524;9.056;2023-06-22T12:45:07;10.63;;;7.90;;
505;SDS011;551;48.524;9.056;2023-06-22T12:47:33;11.10;;;7.70;;
505;SDS011;551;48.524;9.056;2023-06-22T12:49:58;15.67;;;8.37;;
505;SDS011;551;48.524;9.056;2023-06-22T12:52:24;13.47;;;8.17;;
505;SDS011;551;48.524;9.056;2023-06-22T12:54:49;18.23;;;8.70;;
505;SDS011;551;48.524;9.056;2023-06-22T12:57:15;15.43;;;8.57;;
505;SDS011;551;48.524;9.056;2023-06-22T12:59:42;13.73;;;8.47;;
505;SDS011;551;48.524;9.056;2023-06-22T13:02:08;13.87;;;8.67;;
505;SDS011;551;48.524;9.056;2023-06-22T13:04:33;14.27;;;7.33;;
505;SDS011;551;48.524;9.056;2023-06-22T13:06:59;13.70;;;8.80;;
505;SDS011;551;48.524;9.056;2023-06-22T13:09:25;14.10;;;7.70;;
505;SDS011;551;48.524;9.056;2023-06-22T13:11:50;14.63;;;7.33;;
505;SDS011;551;48.524;9.056;2023-06-22T13:14:17;12.73;;;8.13;;
505;SDS011;551;48.524;9.056;2023-06-22T13:16:42;9.60;;;7.30;;
505;SDS011;551;48.524;9.056;2023-06-22T13:19:08;12.13;;;8.17;;
505;SDS011;551;48.524;9.056;2023-06-22T13:21:34;10.70;;;7.20;;
505;SDS011;551;48.524;9.056;2023-06-22T13:23:59;12.70;;;7.40;;
505;SDS011;551;48.524;9.056;2023-06-22T13:26:26;11.60;;;7.80;;
505;SDS011;551;48.524;9.056;2023-06-22T13:28:53;9.07;;;7.13;;
505;SDS011;551;48.524;9.056;2023-06-22T13:31:19;11.50;;;7.40;;
505;SDS011;551;48.524;9.056;2023-06-22T13:33:44;13.10;;;7.77;;
505;SDS011;551;48.524;9.056;2023-06-22T13:36:12;13.10;;;8.20;;
505;SDS011;551;48.524;9.056;2023-06-22T13:38:38;14.97;;;7.37;;
505;SDS011;551;48.524;9.056;2023-06-22T13:41:04;11.83;;;8.20;;
505;SDS011;551;48.524;9.056;2023-06-22T13:43:30;17.57;;;8.80;;
505;SDS011;551;48.524;9.056;2023-06-22T13:45:56;12.70;;;7.50;;
505;SDS011;551;48.524;9.056;2023-06-22T13:48:22;11.10;;;7.20;;
505;SDS011;551;48.524;9.056;2023-06-22T13:50:50;15.10;;;7.70;;
505;SDS011;551;48.524;9.056;2023-06-22T13:53:16;14.70;;;8.37;;
505;SDS011;551;48.524;9.056;2023-06-22T13:55:42;16.90;;;8.07;;
505;SDS011;551;48.524;9.056;2023-06-22T13:58:07;13.90;;;7.20;;
505;SDS011;551;48.524;9.056;2023-06-22T14:00:33;12.97;;;8.87;;
505;SDS011;551;48.524;9.056;2023-06-22T14:02:58;11.43;;;7.97;;
505;SDS011;551;48.524;9.056;2023-06-22T14:05:24;14.30;;;7.93;;
505;SDS011;551;48.524;9.056;2023-06-22T14:07:49;13.53;;;8.40;;
505;SDS011;551;48.524;9.056;2023-06-22T14:10:15;16.47;;;8.37;;
505;SDS011;551;48.524;9.056;2023-06-22T14:12:40;11.37;;;7.47;;
505;SDS011;551;48.524;9.056;2023-06-22T14:15:06;15.37;;;7.37;;
505;SDS011;551;48.524;9.056;2023-06-22T14:17:32;14.03;;;7.50;;
505;SDS011;551;48.524;9.056;2023-06-22T14:19:57;15.00;;;8.47;;
505;SDS011;551;48.524;9.056;2023-06-22T14:22:23;14.17;;;8.03;;
505;SDS011;551;48.524;9.056;2023-06-22T14:24:48;10.63;;;7.40;;
505;SDS011;551;48.524;9.056;2023-06-22T14:27:14;11.27;;;9.07;;
505;SDS011;551;48.524;9.056;2023-06-22T14:29:40;12.43;;;8.20;;
505;SDS011;551;48.524;9.056;2023-06-22T14:32:06;12.63;;;8.00;;
505;SDS011;551;48.524;9.056;2023-06-22T14:34:32;10.23;;;8.00;;
505;SDS011;551;48.524;9.056;2023-06-22T14:37:01;11.90;;;9.27;;
505;SDS011;551;48.524;9.056;2023-06-22T14:39:29;15.93;;;7.77;;
505;SDS011;551;48.524;9.056;2023-06-22T14:41:54;10.20;;;7.87;;
505;SDS011;551;48.524;9.056;2023-06-22T14:44:20;12.40;;;8.63;;
505;SDS011;551;48.524;9.056;2023-06-22T14:46:45;14.33;;;7.90;;
505;SDS011;551;48.524;9.056;2023-06-22T14:49:11;10.80;;;7.33;;
505;SDS011;551;48.524;9.056;2023-06-22T14:51:36;12.77;;;5.53;;
505;SDS011;551;48.524;9.056;2023-06-22T14:54:02;13.23;;;6.03;;
505;SDS011;551;48.524;9.056;2023-06-22T14:56:27;8.57;;;5.23;;
505;SDS011;551;48.524;9.056;2023-06-22T14:58:53;12.57;;;5.57;;
505;SDS011;551;48.524;9.056;2023-06-22T15:01:18;10.33;;;5.60;;
505;SDS011;551;48.524;9.056;2023-06-22T15:03:44;10.77;;;5.00;;
505;SDS011;551;48.524;9.056;2023-06-22T15:06:09;12.83;;;5.63;;
505;SDS011;551;48.524;9.056;2023-06-22T15:08:38;11.40;;;5.00;;
505;SDS011;551;48.524;9.056;2023-06-22T15:11:07;8.47;;;4.40;;
505;SDS011;551;48.524;9.056;2023-06-22T15:13:33;9.80;;;5.40;;
505;SDS011;551;48.524;9.056;2023-06-22T15:16:00;8.60;;;5.23;;
505;SDS011;551;48.524;9.056;2023-06-22T15:18:26;10.60;;;5.40;;
505;SDS011;551;48.524;9.056;2023-06-22T15:20:52;7.00;;;5.37;;
505;SDS011;551;48.524;9.056;2023-06-22T15:23:18;11.87;;;4.90;;
505;SDS011;551;48.524;9.056;2023-06-22T15:25:43;7.43;;;4.10;;
505;SDS011;551;48.524;9.056;2023-06-22T15:28:09;10.70;;;4.73;;